Time;durP1;ratioP1;P1;durP2;ratioP2;P2;SDS_P1;SDS_P2;PMS_P1;PMS_P2;Temp;Humidity;BMP_temperature;BMP_pressure;BME280_temperature;BME280_humidity;BME280_pressure;Samples;Min_cycle;Max_cycle;Signal;HPM_P1;HPM_P2
2021/12/02 00:01:27;;;;;;;4.25;2.98;;;;;;;6.21;66.08;95116.89;1715077;83;25768;-79
2021/12/02 00:03:55;;;;;;;4.30;3.00;;;;;;;6.20;66.10;95126.50;1715082;83;25723;-79
2021/12/02 00:06:23;;;;;;;3.30;2.90;;;;;;;6.19;66.20;95116.84;1714745;83;26027;-79
2021/12/02 00:08:52;;;;;;;6.62;3.50;;;;;;;6.19;66.24;95118.17;1715032;83;25819;-79
2021/12/02 00:11:19;;;;;;;6.70;3.35;;;;;;;6.18;66.27;95124.58;1715154;83;27452;-78
2021/12/02 00:16:24;;;;;;;5.75;3.30;;;;;;;6.13;66.34;95127.47;1715040;83;25708;-78
2021/12/02 00:21:24;;;;;;;7.53;3.02;;;;;;;6.08;66.46;95136.73;1714725;83;25865;-79
2021/12/02 00:24:01;;;;;;;4.35;2.87;;;;;;;6.07;66.49;95137.78;1714725;83;27514;-80
2021/12/02 00:26:30;;;;;;;5.85;3.55;;;;;;;6.05;66.59;95137.20;1715092;83;25908;-79
2021/12/02 00:28:59;;;;;;;7.65;4.80;;;;;;;6.02;66.68;95140.38;1714902;83;25759;-78
2021/12/02 00:31:30;;;;;;;5.50;3.90;;;;;;;6.02;66.76;95136.36;1715004;83;25993;-79
2021/12/02 00:34:00;;;;;;;4.50;2.55;;;;;;;6.02;66.80;95140.38;1714949;83;25764;-79
2021/12/02 00:36:30;;;;;;;4.72;3.02;;;;;;;6.03;66.81;95134.50;1715022;83;27384;-80
2021/12/02 00:39:01;;;;;;;3.77;2.52;;;;;;;6.02;66.88;95135.02;1714927;82;26108;-80
2021/12/02 00:41:28;;;;;;;5.03;3.02;;;;;;;6.04;66.90;95140.93;1714819;83;25393;-80
2021/12/02 00:43:57;;;;;;;5.22;3.35;;;;;;;6.03;66.92;95148.70;1715009;83;26626;-80
2021/12/02 00:46:30;;;;;;;4.58;2.58;;;;;;;6.04;66.95;95144.13;1715128;83;25774;-80
2021/12/02 00:48:57;;;;;;;2.47;2.25;;;;;;;6.04;66.92;95148.15;1715113;83;27470;-81
2021/12/02 00:51:27;;;;;;;3.85;2.47;;;;;;;6.03;66.99;95154.59;1715116;83;25780;-81
2021/12/02 00:53:55;;;;;;;2.83;2.40;;;;;;;6.00;67.05;95131.77;1715299;83;25802;-79
2021/12/02 00:56:25;;;;;;;2.62;2.27;;;;;;;5.98;67.06;95148.59;1714349;83;26049;-80
2021/12/02 00:58:54;;;;;;;3.30;2.50;;;;;;;5.97;67.08;95157.67;1700234;83;25988;-80
2021/12/02 01:01:24;;;;;;;4.67;2.72;;;;;;;5.96;67.12;95146.67;1687842;83;27383;-80
2021/12/02 01:03:59;;;;;;;4.00;2.75;;;;;;;5.94;67.17;95154.13;1676248;85;26561;-80
2021/12/02 01:06:26;;;;;;;3.47;2.30;;;;;;;5.94;67.33;95158.14;1683550;83;26290;-80
2021/12/02 01:08:54;;;;;;;3.08;2.25;;;;;;;5.94;67.31;95174.20;1680925;84;26454;-80
2021/12/02 01:11:21;;;;;;;2.98;2.10;;;;;;;5.94;67.36;95173.39;1681046;85;25699;-80
2021/12/02 01:13:48;;;;;;;3.85;1.90;;;;;;;5.93;67.28;95174.44;1680955;84;28412;-80
2021/12/02 01:16:16;;;;;;;2.47;1.98;;;;;;;5.93;67.37;95171.23;1680879;84;25880;-80
2021/12/02 01:18:43;;;;;;;2.58;2.15;;;;;;;5.90;67.39;95157.00;1680889;84;25790;-80
2021/12/02 01:21:14;;;;;;;2.22;1.90;;;;;;;5.89;67.44;95143.85;1681912;84;25934;-80
2021/12/02 01:23:41;;;;;;;2.87;1.85;;;;;;;5.86;67.47;95149.64;1681693;85;25661;-80
2021/12/02 01:26:09;;;;;;;1.65;1.55;;;;;;;5.82;67.54;95151.97;1657933;85;27478;-80
2021/12/02 01:28:37;;;;;;;1.90;1.70;;;;;;;5.83;67.62;95144.75;1658198;86;25266;-80
2021/12/02 01:31:05;;;;;;;2.10;1.90;;;;;;;5.79;67.65;95149.27;1683666;83;25702;-80
2021/12/02 01:33:35;;;;;;;1.80;1.70;;;;;;;5.77;67.73;95141.98;1669290;85;26827;-80
2021/12/02 01:36:04;;;;;;;1.75;1.57;;;;;;;5.76;67.72;95135.00;1655951;86;25768;-80
2021/12/02 01:38:32;;;;;;;1.47;1.37;;;;;;;5.73;67.75;95140.00;1654485;86;27414;-80
2021/12/02 01:41:02;;;;;;;2.42;1.62;;;;;;;5.70;67.83;95143.14;1669286;85;25801;-80
2021/12/02 01:43:47;;;;;;;1.50;1.32;;;;;;;5.66;67.94;95144.69;1654204;85;25810;-80
2021/12/02 01:46:18;;;;;;;2.22;1.77;;;;;;;5.64;68.02;95144.92;1669297;85;26851;-80
2021/12/02 01:49:04;;;;;;;2.62;1.80;;;;;;;5.61;68.12;95147.24;1655984;86;25265;-80
2021/12/02 01:51:41;;;;;;;2.00;1.75;;;;;;;5.60;68.25;95142.94;1654459;86;27442;-80
2021/12/02 01:54:12;;;;;;;2.50;1.80;;;;;;;5.60;68.36;95140.26;1667344;85;25780;-80
2021/12/02 01:56:46;;;;;;;2.17;1.65;;;;;;;5.60;68.34;95143.75;1655902;85;25807;-80
2021/12/02 01:59:24;;;;;;;1.70;1.60;;;;;;;5.61;68.39;95145.37;1653286;86;26099;-80
2021/12/02 02:01:56;;;;;;;1.70;1.60;;;;;;;5.62;68.44;95145.67;1654087;86;25768;-80
2021/12/02 02:04:23;;;;;;;;;;;;;;;5.63;68.44;95154.52;1686214;85;28250;-80
2021/12/02 02:07:06;;;;;;;1.87;1.50;;;;;;;5.61;68.44;95152.59;1683517;85;26290;-80
2021/12/02 02:09:34;;;;;;;1.40;1.30;;;;;;;5.61;68.54;95151.25;1683622;85;25762;-80
2021/12/02 02:12:04;;;;;;;1.50;1.40;;;;;;;5.63;68.61;95158.53;1683497;85;26056;-80
2021/12/02 02:14:32;;;;;;;1.82;1.40;;;;;;;5.65;68.62;95154.58;1683588;85;25543;-81
2021/12/02 02:17:02;;;;;;;1.80;1.40;;;;;;;5.66;68.66;95160.22;1683535;85;27433;-79
2021/12/02 02:19:32;;;;;;;2.10;1.50;;;;;;;5.68;68.66;95161.30;1683201;85;25917;-80
2021/12/02 02:21:55;;;;;;;1.65;1.30;;;;;;;5.69;68.74;95170.95;1680616;84;26458;-80
2021/12/02 02:24:22;;;;;;;1.77;1.20;;;;;;;5.67;68.86;95168.55;1681513;85;26102;-80
2021/12/02 02:26:49;;;;;;;1.72;1.42;;;;;;;5.67;68.88;95165.05;1681388;85;25739;-80
2021/12/02 02:29:18;;;;;;;1.65;1.40;;;;;;;5.65;69.03;95160.45;1681333;85;27536;-80
2021/12/02 02:31:45;;;;;;;1.95;1.42;;;;;;;5.63;69.03;95164.70;1681344;85;25758;-80
2021/12/02 02:34:12;;;;;;;1.62;1.50;;;;;;;5.59;69.21;95164.05;1655761;85;26369;-80
2021/12/02 02:36:51;;;;;;;2.17;1.62;;;;;;;5.56;69.66;95152.47;1681530;85;26004;-80
2021/12/02 02:39:11;;;;;;;2.05;1.65;;;;;;;5.55;70.00;95158.90;1674887;85;25746;-80
2021/12/02 02:41:41;;;;;;;1.40;1.30;;;;;;;5.53;70.11;95166.34;1669089;85;28644;-80
2021/12/02 02:44:08;;;;;;;1.62;1.52;;;;;;;5.49;70.31;95166.52;1668915;85;26317;-80
2021/12/02 02:46:41;;;;;;;2.08;1.55;;;;;;;5.46;70.43;95170.46;1669082;85;25778;-80
2021/12/02 02:49:12;;;;;;;;;;;;;;;5.46;70.62;95170.98;1671619;85;26045;-80
2021/12/02 02:51:40;;;;;;;2.17;1.80;;;;;;;5.44;70.87;95177.37;1669163;85;25696;-80
2021/12/02 02:54:10;;;;;;;2.58;2.35;;;;;;;5.40;70.84;95176.23;1669104;84;27447;-80
2021/12/02 02:56:47;;;;;;;2.20;1.82;;;;;;;5.42;70.92;95189.39;1668979;85;25759;-80
2021/12/02 03:07:11;;;;;;;2.90;1.85;;;;;;;5.43;71.08;95178.42;1669118;85;27482;-80
2021/12/02 03:16:37;;;;;;;2.27;1.75;;;;;;;5.46;71.16;95172.32;1668792;84;26007;-80
2021/12/02 03:17:20;;;;;;;3.90;1.90;;;;;;;5.44;71.21;95170.69;1664457;85;25924;-81
2021/12/02 03:19:47;;;;;;;2.05;1.67;;;;;;;5.43;71.10;95169.06;1668797;84;28195;-81
2021/12/02 03:22:16;;;;;;;2.30;1.75;;;;;;;5.41;71.19;95165.83;1665708;85;25969;-81
2021/12/02 03:24:43;;;;;;;3.25;2.30;;;;;;;5.39;71.29;95171.12;1707128;83;25256;-81
2021/12/02 03:27:10;;;;;;;4.22;2.55;;;;;;;5.38;71.40;95174.31;1706966;84;26459;-81
2021/12/02 03:29:36;;;;;;;1.87;1.57;;;;;;;5.37;71.43;95166.52;1706650;84;25736;-80
2021/12/02 03:32:04;;;;;;;2.87;1.72;;;;;;;5.35;71.51;95170.76;1706733;83;27429;-81
2021/12/02 03:34:31;;;;;;;3.55;2.25;;;;;;;5.33;71.62;95180.88;1706961;84;25821;-81
2021/12/02 03:36:58;;;;;;;2.45;1.75;;;;;;;5.31;71.70;95176.27;1707052;84;25813;-81
2021/12/02 03:39:25;;;;;;;2.47;1.95;;;;;;;5.29;71.59;95174.38;1707030;84;26066;-81
2021/12/02 03:41:54;;;;;;;3.27;2.25;;;;;;;5.30;71.61;95184.03;1707065;83;25695;-81
2021/12/02 03:44:22;;;;;;;2.37;1.98;;;;;;;5.28;71.66;95183.45;1707006;83;27567;-81
2021/12/02 03:46:50;;;;;;;3.37;1.98;;;;;;;5.27;71.82;95179.14;1707009;83;25704;-81
2021/12/02 03:49:16;;;;;;;3.37;1.87;;;;;;;5.26;71.91;95186.06;1707052;84;25733;-81
2021/12/02 03:51:43;;;;;;;3.72;2.00;;;;;;;5.26;71.96;95174.84;1707135;84;25984;-80
2021/12/02 03:54:10;;;;;;;2.95;1.95;;;;;;;5.26;71.92;95179.38;1707047;84;25678;-80
2021/12/02 03:56:36;;;;;;;3.17;2.10;;;;;;;5.26;71.86;95174.02;1706971;83;27358;-81
2021/12/02 03:59:04;;;;;;;2.70;1.80;;;;;;;5.26;72.03;95174.02;1706931;83;26549;-80
2021/12/02 04:01:30;;;;;;;15.45;6.15;;;;;;;5.24;72.13;95164.07;1707038;84;25735;-80
2021/12/02 04:03:57;;;;;;;21.15;8.28;;;;;;;5.22;72.37;95175.00;1706987;83;26294;-81
2021/12/02 04:06:24;;;;;;;36.05;12.90;;;;;;;5.22;72.40;95177.67;1707034;83;25709;-81
2021/12/02 04:09:03;;;;;;;56.55;17.52;;;;;;;5.23;72.45;95171.28;1707090;83;27647;-80
2021/12/02 04:11:34;;;;;;;53.30;14.78;;;;;;;5.23;72.38;95169.13;1705795;84;25801;-81
2021/12/02 04:14:24;;;;;;;34.85;10.50;;;;;;;5.22;72.38;95170.98;1706830;83;25746;-80
2021/12/02 04:16:55;;;;;;;87.75;25.68;;;;;;;5.23;72.48;95177.16;1705973;83;26775;-80
2021/12/02 04:19:22;;;;;;;27.52;9.28;;;;;;;5.23;72.44;95174.48;1706769;83;25727;-80
2021/12/02 04:21:49;;;;;;;52.75;17.62;;;;;;;5.23;72.46;95165.93;1706907;83;27587;-80
2021/12/02 04:24:16;;;;;;;39.58;14.95;;;;;;;5.21;72.45;95170.70;1706945;84;25967;-80
2021/12/02 04:26:43;;;;;;;51.30;20.08;;;;;;;5.20;72.48;95165.05;1707087;83;25723;-80
2021/12/02 04:29:11;;;;;;;32.15;12.95;;;;;;;5.21;72.49;95160.52;1707100;83;26011;-80
2021/12/02 04:31:46;;;;;;;25.45;9.33;;;;;;;5.21;72.53;95164.01;1706927;83;26376;-80
2021/12/02 04:34:13;;;;;;;12.45;5.33;;;;;;;5.21;72.44;95169.36;1706860;83;27453;-80
2021/12/02 04:36:40;;;;;;;11.10;4.78;;;;;;;5.21;72.44;95165.34;1707117;84;25702;-80
2021/12/02 04:39:07;;;;;;;10.53;3.98;;;;;;;5.23;72.44;95169.13;1707221;84;25716;-80
2021/12/02 04:41:34;;;;;;;8.85;3.08;;;;;;;5.24;72.53;95171.58;1707057;84;25999;-80
2021/12/02 04:44:01;;;;;;;6.90;2.90;;;;;;;5.25;72.52;95161.69;1707145;83;25666;-80
2021/12/02 04:46:28;;;;;;;6.00;3.10;;;;;;;5.26;72.51;95162.80;1707072;83;27449;-80
2021/12/02 04:48:55;;;;;;;4.03;2.58;;;;;;;5.27;72.46;95165.77;1707074;84;25830;-80
2021/12/02 04:51:21;;;;;;;3.25;2.20;;;;;;;5.28;72.41;95168.73;1707112;84;25761;-80
2021/12/02 04:53:48;;;;;;;2.45;1.80;;;;;;;5.29;72.45;95167.69;1707131;84;26565;-80
2021/12/02 04:56:15;;;;;;;3.22;1.90;;;;;;;5.29;72.40;95165.54;1707200;83;26337;-80
2021/12/02 04:58:41;;;;;;;3.87;2.17;;;;;;;5.29;72.46;95169.03;1707084;83;28527;-81
2021/12/02 05:01:08;;;;;;;4.08;2.50;;;;;;;5.28;72.43;95174.09;1707070;83;26307;-80
2021/12/02 05:03:34;;;;;;;3.60;2.52;;;;;;;5.25;72.39;95175.87;1707122;84;25690;-80
2021/12/02 05:06:01;;;;;;;5.47;2.77;;;;;;;5.26;72.42;95176.70;1707090;83;26202;-79
2021/12/02 05:08:27;;;;;;;5.35;3.20;;;;;;;5.25;72.40;95171.87;1707153;83;25818;-79
2021/12/02 05:10:54;;;;;;;4.75;2.67;;;;;;;5.26;72.38;95164.14;1707188;84;27518;-79
2021/12/02 05:13:20;;;;;;;6.72;3.45;;;;;;;5.26;72.38;95164.66;1707017;84;25675;-79
2021/12/02 05:15:47;;;;;;;5.45;2.90;;;;;;;5.25;72.38;95175.87;1707092;84;25849;-79
2021/12/02 05:18:14;;;;;;;3.37;2.52;;;;;;;5.24;72.40;95180.94;1707171;84;26043;-80
2021/12/02 05:20:40;;;;;;;3.58;2.25;;;;;;;5.24;72.42;95180.94;1707199;83;25798;-80
2021/12/02 05:23:07;;;;;;;4.00;2.75;;;;;;;5.22;72.41;95176.34;1706830;83;27364;-79
2021/12/02 05:25:33;;;;;;;7.15;3.83;;;;;;;5.23;72.41;95177.97;1707022;83;26145;-79
2021/12/02 05:28:00;;;;;;;4.80;3.00;;;;;;;5.24;72.43;95179.59;1707121;84;25288;-79
2021/12/02 05:30:26;;;;;;;4.60;3.02;;;;;;;5.26;72.40;95179.38;1707154;84;25980;-79
2021/12/02 05:32:53;;;;;;;5.17;2.60;;;;;;;5.31;72.49;95184.85;1706890;84;25690;-80
2021/12/02 05:35:20;;;;;;;3.30;2.42;;;;;;;5.35;72.32;95192.69;1707040;84;27477;-79
2021/12/02 05:37:47;;;;;;;2.55;2.30;;;;;;;5.35;72.33;95200.19;1706993;84;25793;-79
2021/12/02 05:40:13;;;;;;;3.52;2.70;;;;;;;5.35;72.27;95198.84;1707058;84;25840;-79
2021/12/02 05:42:40;;;;;;;4.00;2.60;;;;;;;5.36;72.21;95206.35;1707195;84;26071;-79
2021/12/02 05:45:07;;;;;;;4.53;2.27;;;;;;;5.37;72.20;95215.48;1707155;83;25751;-80
2021/12/02 05:47:34;;;;;;;3.55;2.55;;;;;;;5.39;72.13;95219.27;1707167;84;27370;-80
2021/12/02 05:50:00;;;;;;;3.12;2.35;;;;;;;5.38;72.13;95212.29;1706970;84;25742;-80
2021/12/02 05:52:27;;;;;;;4.20;2.72;;;;;;;5.40;72.12;95224.92;1707005;84;25250;-79
2021/12/02 05:54:54;;;;;;;5.25;2.80;;;;;;;5.39;72.13;95224.63;1706749;83;26099;-80
2021/12/02 05:57:20;;;;;;;4.80;2.40;;;;;;;5.40;72.05;95217.70;1706844;83;25734;-80
2021/12/02 05:59:47;;;;;;;5.72;3.25;;;;;;;5.41;72.00;95231.38;1707131;84;27356;-80
2021/12/02 06:02:13;;;;;;;3.90;2.90;;;;;;;5.40;72.00;95228.94;1707010;83;25726;-80
2021/12/02 06:04:42;;;;;;;8.33;4.58;;;;;;;5.41;71.95;95223.88;1707176;84;25241;-80
2021/12/02 06:07:08;;;;;;;12.18;5.95;;;;;;;5.41;71.91;95225.21;1707064;84;26545;-80
2021/12/02 06:09:35;;;;;;;14.03;6.55;;;;;;;5.40;71.88;95236.96;1707134;83;26273;-79
2021/12/02 06:12:02;;;;;;;17.25;7.78;;;;;;;5.39;71.86;95229.98;1707117;84;27390;-79
2021/12/02 06:14:28;;;;;;;20.08;9.20;;;;;;;5.39;71.90;95230.80;1707004;84;25711;-79
2021/12/02 06:16:55;;;;;;;19.15;8.13;;;;;;;5.42;71.91;95224.17;1707109;83;26330;-80
2021/12/02 06:19:21;;;;;;;12.53;6.85;;;;;;;5.43;71.83;95226.59;1707101;83;27021;-80
2021/12/02 06:21:50;;;;;;;13.95;6.78;;;;;;;5.43;71.74;95235.95;1707256;83;25770;-80
2021/12/02 06:24:16;;;;;;;8.70;4.55;;;;;;;5.42;71.73;95230.34;1712068;83;28213;-80
2021/12/02 06:26:43;;;;;;;11.12;6.40;;;;;;;5.43;71.70;95237.84;1712539;83;25892;-80
2021/12/02 06:29:10;;;;;;;8.38;4.65;;;;;;;5.43;71.66;95230.59;1712462;83;25904;-80
2021/12/02 06:31:36;;;;;;;8.68;4.97;;;;;;;5.43;71.66;95245.31;1712658;83;26018;-80
2021/12/02 06:34:03;;;;;;;25.40;11.75;;;;;;;5.44;71.64;95243.45;1712599;83;25753;-80
2021/12/02 06:36:30;;;;;;;10.88;5.70;;;;;;;5.44;71.65;95253.64;1712671;83;27424;-80
2021/12/02 06:38:56;;;;;;;11.00;6.08;;;;;;;5.44;71.62;95254.97;1712613;83;25819;-80
2021/12/02 06:41:23;;;;;;;27.10;18.45;;;;;;;5.44;71.58;95254.16;1712533;83;26257;-80
2021/12/02 06:43:50;;;;;;;15.32;11.33;;;;;;;5.43;71.59;95253.34;1712725;83;26050;-80
2021/12/02 06:46:16;;;;;;;7.92;5.87;;;;;;;5.44;71.61;95257.66;1703257;82;25781;-81
2021/12/02 06:48:43;;;;;;;7.78;4.10;;;;;;;5.47;71.58;95256.91;1690839;83;27365;-81
2021/12/02 06:51:12;;;;;;;4.55;3.22;;;;;;;5.49;71.79;95254.30;1717935;83;26209;-81
2021/12/02 06:53:38;;;;;;;30.48;13.50;;;;;;;5.54;71.62;95248.26;1717701;83;26258;-80
2021/12/02 06:56:04;;;;;;;15.72;7.53;;;;;;;5.60;71.77;95247.31;1717923;83;26753;-81
2021/12/02 06:58:31;;;;;;;12.98;6.37;;;;;;;5.61;71.54;95248.42;1717313;83;25416;-81
2021/12/02 07:00:58;;;;;;;12.98;7.10;;;;;;;5.62;71.47;95250.58;1718052;83;28190;-81
2021/12/02 07:03:24;;;;;;;10.38;5.50;;;;;;;5.64;71.39;95248.48;1717911;83;25878;-80
2021/12/02 07:05:51;;;;;;;8.48;4.35;;;;;;;5.66;71.36;95255.77;1718110;83;25683;-80
2021/12/02 07:08:19;;;;;;;7.20;4.60;;;;;;;5.68;71.29;95263.02;1718059;83;26151;-80
2021/12/02 07:10:46;;;;;;;5.40;3.80;;;;;;;5.70;71.24;95252.89;1717811;83;26466;-80
2021/12/02 07:13:13;;;;;;;5.65;3.98;;;;;;;5.64;71.19;95241.27;1718144;83;27099;-80
2021/12/02 07:15:45;;;;;;;8.33;5.37;;;;;;;5.73;71.17;95257.27;1717920;83;25759;-80
2021/12/02 07:18:15;;;;;;;12.68;7.62;;;;;;;5.74;71.08;95252.73;1717869;83;25785;-80
2021/12/02 07:20:46;;;;;;;15.60;8.65;;;;;;;5.77;71.07;95256.28;1718048;83;26073;-80
2021/12/02 07:23:15;;;;;;;16.80;10.08;;;;;;;5.81;71.05;95254.75;1716062;83;25843;-80
2021/12/02 07:25:42;;;;;;;21.80;11.38;;;;;;;5.87;71.02;95244.45;1712690;83;27566;-80
2021/12/02 07:28:11;;;;;;;21.35;10.40;;;;;;;5.91;70.96;95243.50;1712630;83;25676;-81
2021/12/02 07:30:37;;;;;;;17.07;8.93;;;;;;;5.94;70.91;95249.19;1712662;83;25669;-80
2021/12/02 07:33:05;;;;;;;18.05;9.33;;;;;;;5.97;70.83;95256.75;1712716;83;26078;-80
2021/12/02 07:35:32;;;;;;;15.25;7.65;;;;;;;6.02;70.77;95258.74;1712674;83;25717;-80
2021/12/02 07:38:01;;;;;;;16.17;9.08;;;;;;;6.06;70.71;95259.87;1712659;83;28236;-80
2021/12/02 07:40:33;;;;;;;11.78;7.30;;;;;;;6.11;70.64;95264.84;1712635;83;25779;-80
2021/12/02 07:42:59;;;;;;;10.50;5.87;;;;;;;6.19;70.58;95265.51;1712633;83;25779;-80
2021/12/02 07:45:31;;;;;;;9.83;5.87;;;;;;;6.26;70.47;95274.25;1712424;83;26044;-80
2021/12/02 07:47:57;;;;;;;6.72;4.58;;;;;;;6.31;70.48;95269.80;1712561;83;25310;-80
2021/12/02 07:50:23;;;;;;;6.12;3.85;;;;;;;6.38;70.39;95261.12;1712668;83;27525;-80
2021/12/02 07:52:53;;;;;;;7.65;4.40;;;;;;;6.48;70.35;95264.52;1712588;83;26062;-80
2021/12/02 07:55:22;;;;;;;7.83;4.20;;;;;;;6.56;70.22;95270.02;1723516;82;25771;-80
2021/12/02 07:57:50;;;;;;;9.45;4.00;;;;;;;6.64;70.14;95275.03;1722510;82;25920;-80
2021/12/02 08:00:24;;;;;;;4.45;3.25;;;;;;;6.70;70.11;95276.74;1712959;83;25746;-80
2021/12/02 08:02:54;;;;;;;6.05;3.45;;;;;;;6.74;69.95;95280.06;1713058;83;28280;-80
2021/12/02 08:05:23;;;;;;;5.72;3.45;;;;;;;6.76;69.99;95281.95;1712858;83;25959;-80
2021/12/02 08:07:51;;;;;;;6.35;3.75;;;;;;;6.81;69.88;95278.03;1712956;83;25276;-80
2021/12/02 08:10:18;;;;;;;3.62;3.05;;;;;;;6.84;69.87;95274.88;1712939;83;25944;-80
2021/12/02 08:12:48;;;;;;;3.98;2.80;;;;;;;6.88;69.84;95266.63;1713002;83;25695;-79
2021/12/02 08:15:25;;;;;;;4.72;2.98;;;;;;;6.91;69.84;95269.89;1713003;83;27364;-80
2021/12/02 08:17:53;;;;;;;5.08;3.80;;;;;;;6.91;69.84;95280.61;1712898;83;25245;-81
2021/12/02 08:20:23;;;;;;;5.10;3.60;;;;;;;6.95;69.94;95287.14;1713008;83;25794;-80
2021/12/02 08:22:50;;;;;;;6.33;3.50;;;;;;;7.00;69.84;95294.77;1713036;82;26163;-80
2021/12/02 08:25:19;;;;;;;6.35;3.20;;;;;;;7.01;69.68;95295.02;1715615;83;25701;-80
2021/12/02 08:27:47;;;;;;;6.25;3.40;;;;;;;6.99;69.62;95288.30;1715538;83;27448;-80
2021/12/02 08:30:16;;;;;;;5.37;3.25;;;;;;;7.00;69.52;95292.09;1707095;83;25729;-80
2021/12/02 08:32:45;;;;;;;5.15;3.70;;;;;;;6.98;69.63;95291.50;1715780;83;25826;-80
2021/12/02 08:35:13;;;;;;;8.38;4.72;;;;;;;6.98;69.50;95297.39;1715766;83;25994;-80
2021/12/02 08:37:46;;;;;;;8.63;4.45;;;;;;;7.00;69.54;95291.27;1715783;83;26313;-81
2021/12/02 08:40:16;;;;;;;7.03;4.10;;;;;;;7.04;69.56;95293.73;1715487;83;28477;-81
2021/12/02 08:42:44;;;;;;;7.60;4.77;;;;;;;7.05;69.39;95300.73;1715933;83;25790;-80
2021/12/02 08:45:11;;;;;;;5.47;3.75;;;;;;;7.02;69.30;95303.89;1715823;83;25726;-80
2021/12/02 08:47:44;;;;;;;4.40;3.37;;;;;;;7.02;69.29;95298.00;1715757;83;26962;-80
2021/12/02 08:50:06;;;;;;;6.80;4.50;;;;;;;7.04;69.27;95297.23;1714894;82;25731;-80
2021/12/02 08:52:33;;;;;;;4.95;3.52;;;;;;;7.04;69.17;95301.78;1689735;83;27370;-81
2021/12/02 08:55:03;;;;;;;6.58;3.52;;;;;;;7.02;69.27;95293.16;1685408;84;25703;-81
2021/12/02 08:57:30;;;;;;;7.33;3.98;;;;;;;7.02;69.30;95299.34;1685694;85;26292;-81
2021/12/02 08:59:56;;;;;;;5.50;3.22;;;;;;;7.06;69.30;95301.02;1685545;84;26040;-81
2021/12/02 09:02:23;;;;;;;6.28;4.00;;;;;;;7.08;69.18;95311.81;1685599;84;25803;-80
2021/12/02 09:04:50;;;;;;;6.28;3.70;;;;;;;7.08;69.06;95321.20;1685472;84;28570;-80
2021/12/02 09:07:16;;;;;;;4.53;3.45;;;;;;;7.06;68.98;95319.80;1685375;84;25748;-81
2021/12/02 09:09:43;;;;;;;5.05;3.77;;;;;;;7.06;68.97;95326.51;1685282;84;25668;-81
2021/12/02 09:12:10;;;;;;;6.80;4.58;;;;;;;7.07;68.97;95322.25;1685366;83;27029;-80
2021/12/02 09:14:37;;;;;;;6.10;4.35;;;;;;;7.05;68.96;95323.01;1686906;83;25490;-81
2021/12/02 09:17:05;;;;;;;6.75;5.15;;;;;;;7.02;69.00;95329.37;1686569;83;27492;-81
2021/12/02 09:19:31;;;;;;;9.30;4.97;;;;;;;7.05;69.05;95330.24;1686735;83;25726;-81
2021/12/02 09:21:58;;;;;;;6.83;4.87;;;;;;;7.05;69.06;95326.22;1686694;83;25725;-81
2021/12/02 09:24:25;;;;;;;8.28;4.12;;;;;;;7.06;69.00;95330.53;1697918;82;26084;-81
2021/12/02 09:26:54;;;;;;;4.42;2.80;;;;;;;7.06;68.75;95333.22;1711888;82;25691;-80
2021/12/02 09:29:22;;;;;;;4.75;3.15;;;;;;;7.04;68.85;95325.92;1714073;82;27407;-81
2021/12/02 09:31:49;;;;;;;4.03;3.42;;;;;;;7.07;68.82;95325.45;1712589;82;25715;-81
2021/12/02 09:34:16;;;;;;;3.72;3.20;;;;;;;7.12;68.78;95326.38;1678357;84;25693;-80
2021/12/02 09:36:43;;;;;;;7.30;3.45;;;;;;;7.12;68.59;95322.88;1682019;82;26086;-80
2021/12/02 09:39:13;;;;;;;6.33;3.52;;;;;;;7.11;68.54;95328.77;1708559;82;25275;-81
2021/12/02 09:41:41;;;;;;;5.47;4.10;;;;;;;7.14;68.59;95327.45;1713314;82;28336;-80
2021/12/02 09:44:09;;;;;;;5.28;3.67;;;;;;;7.13;68.45;95328.51;1712613;82;26318;-80
2021/12/02 09:46:35;;;;;;;4.00;2.50;;;;;;;7.14;68.43;95330.14;1708160;82;25298;-81
2021/12/02 09:49:05;;;;;;;4.95;3.65;;;;;;;7.13;68.29;95329.84;1712712;82;25990;-81
2021/12/02 09:51:38;;;;;;;3.52;2.70;;;;;;;7.12;68.33;95331.75;1710612;82;25318;-82
2021/12/02 09:54:17;;;;;;;7.20;4.47;;;;;;;7.13;68.18;95328.51;1715941;82;27406;-81
2021/12/02 09:56:44;;;;;;;5.53;3.60;;;;;;;7.10;68.13;95320.44;1711944;82;25762;-81
2021/12/02 09:59:13;;;;;;;6.17;3.33;;;;;;;7.09;68.14;95317.98;1711922;82;25947;-81
2021/12/02 10:01:49;;;;;;;8.30;4.37;;;;;;;7.10;68.09;95325.80;1712238;82;26101;-81
2021/12/02 10:04:14;;;;;;;6.70;4.42;;;;;;;7.13;68.12;95313.75;1711152;82;25585;-81
2021/12/02 10:06:42;;;;;;;4.47;3.25;;;;;;;7.15;68.17;95321.85;1712490;82;27113;-81
2021/12/02 10:09:16;;;;;;;5.17;3.30;;;;;;;7.14;68.10;95324.77;1694994;82;26039;-81
2021/12/02 10:11:55;;;;;;;7.65;3.60;;;;;;;7.14;68.16;95318.06;1678343;85;25768;-81
2021/12/02 10:14:33;;;;;;;6.25;3.72;;;;;;;7.14;68.01;95321.56;1695799;82;26355;-82
2021/12/02 10:17:13;;;;;;;5.08;3.47;;;;;;;7.14;67.98;95314.04;1683523;84;25350;-81
2021/12/02 10:20:15;;;;;;;5.45;3.85;;;;;;;7.19;68.04;95318.17;1683951;84;27421;-82
2021/12/02 10:22:40;;;;;;;4.08;3.20;;;;;;;7.19;68.01;95312.80;1622206;86;25857;-81
2021/12/02 10:25:10;;;;;;;12.07;5.05;;;;;;;7.21;67.86;95318.75;1666650;85;25764;-82
2021/12/02 10:27:36;;;;;;;11.28;4.92;;;;;;;7.23;68.04;95314.78;1668749;85;26038;-81
2021/12/02 10:30:20;;;;;;;6.33;4.17;;;;;;;7.30;68.00;95315.14;1645962;85;25948;-81
2021/12/02 10:32:51;;;;;;;4.50;3.12;;;;;;;7.36;68.00;95317.69;1661968;85;27510;-83
2021/12/02 10:35:20;;;;;;;6.03;4.45;;;;;;;7.40;67.80;95310.77;1652001;85;25885;-81
2021/12/02 10:37:47;;;;;;;7.20;4.53;;;;;;;7.45;67.60;95306.02;1651272;85;25859;-81
2021/12/02 10:40:18;;;;;;;4.62;3.08;;;;;;;7.50;67.59;95312.27;1652170;85;26146;-80
2021/12/02 10:42:47;;;;;;;5.00;2.98;;;;;;;7.53;67.20;95311.80;1651829;85;25808;-81
2021/12/02 10:45:30;;;;;;;8.38;4.80;;;;;;;7.54;66.90;95300.00;1652101;85;28402;-82
2021/12/02 10:47:58;;;;;;;6.60;4.22;;;;;;;7.57;67.01;95294.68;1652641;85;25864;-81
2021/12/02 10:50:26;;;;;;;6.85;4.35;;;;;;;7.65;67.03;95292.11;1662752;85;25702;-80
2021/12/02 10:52:54;;;;;;;6.85;4.53;;;;;;;7.78;66.98;95290.44;1664237;83;27330;-82
2021/12/02 10:55:25;;;;;;;5.87;3.50;;;;;;;7.86;66.66;95290.02;1691021;83;25838;-81
2021/12/02 10:57:58;;;;;;;4.10;2.85;;;;;;;8.01;66.40;95288.91;1713368;83;26851;-81
2021/12/02 11:00:33;;;;;;;5.80;3.22;;;;;;;8.20;66.68;95297.52;1718141;82;25736;-81
2021/12/02 11:03:09;;;;;;;4.40;3.20;;;;;;;8.39;66.36;95294.03;1717744;82;25795;-82
2021/12/02 11:05:36;;;;;;;4.17;3.00;;;;;;;8.64;66.47;95303.25;1717306;82;26979;-82
2021/12/02 11:08:11;;;;;;;4.22;2.62;;;;;;;8.82;65.96;95293.22;1691394;82;25722;-82
2021/12/02 11:10:44;;;;;;;4.42;3.05;;;;;;;9.00;65.88;95295.06;1717916;82;27339;-83
2021/12/02 11:13:18;;;;;;;3.90;2.95;;;;;;;9.10;65.51;95293.53;1717866;82;25876;-81
2021/12/02 11:15:45;;;;;;;3.95;3.02;;;;;;;9.17;65.00;95294.16;1715821;82;25861;-82
2021/12/02 11:18:15;;;;;;;5.03;3.20;;;;;;;9.26;64.85;95287.25;1717992;83;26043;-81
2021/12/02 11:20:50;;;;;;;3.08;2.30;;;;;;;9.31;64.80;95304.25;1718221;82;26317;-82
2021/12/02 11:23:23;;;;;;;4.47;2.47;;;;;;;9.32;64.46;95295.64;1717995;83;27491;-81
2021/12/02 11:25:58;;;;;;;;;;;;;;;9.25;64.11;95293.17;1715652;82;25866;-79
2021/12/02 11:28:29;;;;;;;2.70;2.17;;;;;;;9.26;63.74;95302.06;1717057;82;25814;-81
2021/12/02 11:30:59;;;;;;;1.90;1.50;;;;;;;9.15;63.69;95298.98;1698264;82;27898;-82
2021/12/02 11:33:38;;;;;;;2.20;1.70;;;;;;;9.11;63.70;95297.33;1682858;83;25873;-83
2021/12/02 11:36:09;;;;;;;2.70;2.15;;;;;;;9.03;63.61;95288.36;1711642;82;28207;-82
2021/12/02 11:38:36;;;;;;;3.05;1.82;;;;;;;8.91;63.30;95301.96;1710474;83;25722;-82
2021/12/02 11:41:05;;;;;;;2.37;2.17;;;;;;;8.86;63.49;95295.70;1711925;83;26348;-82
2021/12/02 11:43:36;;;;;;;4.78;2.10;;;;;;;8.84;63.51;95297.28;1711607;82;26043;-82
2021/12/02 11:46:07;;;;;;;2.62;2.10;;;;;;;8.81;63.43;95305.88;1711691;82;25781;-82
2021/12/02 11:48:38;;;;;;;3.20;2.55;;;;;;;8.76;63.28;95305.81;1711123;82;27483;-81
2021/12/02 11:51:09;;;;;;;5.15;2.80;;;;;;;8.70;62.98;95298.73;1711996;82;25782;-82
2021/12/02 11:53:35;;;;;;;5.10;2.70;;;;;;;8.67;63.13;95297.91;1712428;82;25712;-82
2021/12/02 11:56:10;;;;;;;6.08;3.17;;;;;;;8.75;63.16;95297.98;1712632;83;26036;-82
2021/12/02 11:58:37;;;;;;;3.33;2.72;;;;;;;8.84;63.28;95299.98;1712728;83;25765;-81
2021/12/02 12:01:04;;;;;;;3.12;2.25;;;;;;;8.87;63.29;95307.55;1742021;81;27377;-82
2021/12/02 12:03:45;;;;;;;3.20;2.72;;;;;;;8.84;63.06;95298.63;1745131;82;25717;-82
2021/12/02 12:06:25;;;;;;;3.42;2.55;;;;;;;8.83;63.14;95298.34;1696887;82;25771;-82
2021/12/02 12:08:55;;;;;;;3.33;2.55;;;;;;;8.84;63.12;95294.59;1709734;82;54857;-81